createdAt,value
2022-12-15T00:00:47.498Z,99560.44
2022-12-15T00:03:13.970Z,99565.31
2022-12-15T00:05:40.503Z,99567.94
2022-12-15T00:08:09.858Z,99568.00
2022-12-15T00:10:36.230Z,99570.25
2022-12-15T00:13:03.624Z,99577.16
2022-12-15T00:15:29.992Z,99580.00
2022-12-15T00:17:56.444Z,99575.63
2022-12-15T00:20:23.267Z,99576.59
2022-12-15T00:22:49.636Z,99581.47
2022-12-15T00:25:16.075Z,99581.03
2022-12-15T00:27:42.430Z,99587.75
2022-12-15T00:30:10.887Z,99577.22
2022-12-15T00:32:37.222Z,99583.28
2022-12-15T00:35:03.782Z,99581.63
2022-12-15T00:37:30.178Z,99591.72
2022-12-15T00:39:56.547Z,99581.75
2022-12-15T00:42:22.916Z,99578.31
2022-12-15T00:44:49.290Z,99571.06
2022-12-15T00:47:15.700Z,99568.47
2022-12-15T00:49:42.134Z,99573.97
2022-12-15T00:52:09.204Z,99574.81
2022-12-15T00:54:35.574Z,99576.44
2022-12-15T00:57:01.943Z,99582.56
2022-12-15T00:59:28.324Z,99584.63
2022-12-15T01:01:54.819Z,99582.53
2022-12-15T01:04:21.454Z,99586.78
2022-12-15T01:06:47.855Z,99586.41
2022-12-15T01:09:14.243Z,99588.22
2022-12-15T01:11:41.493Z,99597.25
2022-12-15T01:14:07.887Z,99598.91
2022-12-15T01:16:34.373Z,99591.97
2022-12-15T01:19:00.763Z,99589.09
2022-12-15T01:21:27.155Z,99597.75
2022-12-15T01:23:53.772Z,99605.84
2022-12-15T01:26:20.363Z,99598.34
2022-12-15T01:28:46.779Z,99608.47
2022-12-15T01:31:13.801Z,99614.56
2022-12-15T01:33:40.400Z,99611.91
2022-12-15T01:36:06.940Z,99615.78
2022-12-15T01:38:33.383Z,99621.34
2022-12-15T01:41:06.059Z,99630.66
2022-12-15T01:43:35.515Z,99628.75
2022-12-15T01:46:03.722Z,99633.22
2022-12-15T01:48:53.487Z,99624.47
2022-12-15T01:51:35.059Z,99627.50
2022-12-15T01:54:06.512Z,99619.38
2022-12-15T01:57:06.999Z,99625.47
2022-12-15T01:59:40.777Z,99626.91
2022-12-15T02:02:07.445Z,99623.28
2022-12-15T02:04:34.214Z,99637.66
2022-12-15T02:07:00.615Z,99640.09
2022-12-15T02:09:28.227Z,99631.03
2022-12-15T02:12:26.838Z,99637.34
2022-12-15T02:14:55.894Z,99634.94
2022-12-15T02:18:15.492Z,99645.09
2022-12-15T02:20:52.204Z,99655.47
2022-12-15T02:23:56.098Z,99659.56
2022-12-15T02:26:31.251Z,99664.03
2022-12-15T02:29:00.561Z,99648.81
2022-12-15T02:31:34.052Z,99659.16
2022-12-15T02:34:14.426Z,99661.66
2022-12-15T02:36:44.525Z,99660.22
2022-12-15T02:39:14.337Z,99677.03
2022-12-15T02:41:46.454Z,99667.34
2022-12-15T02:44:38.102Z,99669.78
2022-12-15T02:47:31.454Z,99663.50
2022-12-15T02:50:11.286Z,99664.75
2022-12-15T02:52:40.548Z,99657.00
2022-12-15T02:55:12.999Z,99660.66
2022-12-15T02:57:53.212Z,99660.06
2022-12-15T03:00:20.123Z,99665.31
2022-12-15T03:02:51.342Z,99660.22
2022-12-15T03:05:19.364Z,99667.75
2022-12-15T03:07:45.922Z,99675.59
2022-12-15T03:10:16.995Z,99675.19
2022-12-15T03:12:43.342Z,99678.44
2022-12-15T03:15:10.124Z,99679.66
2022-12-15T03:17:36.466Z,99689.00
2022-12-15T03:20:02.965Z,99683.72
2022-12-15T03:22:29.296Z,99671.13
2022-12-15T03:24:55.609Z,99685.34
2022-12-15T03:27:22.078Z,99679.09
2022-12-15T03:29:48.407Z,99685.75
2022-12-15T03:32:14.787Z,99687.97
2022-12-15T03:34:41.239Z,99682.94
2022-12-15T03:37:07.608Z,99686.38
2022-12-15T03:39:33.921Z,99690.22
2022-12-15T03:42:00.245Z,99703.25
2022-12-15T03:44:26.572Z,99704.03
2022-12-15T03:46:52.915Z,99706.91
2022-12-15T03:49:19.237Z,99699.16
2022-12-15T03:51:45.567Z,99712.56
2022-12-15T03:54:13.177Z,99711.75
2022-12-15T03:56:39.713Z,99712.97
2022-12-15T03:59:06.255Z,99718.06
2022-12-15T04:01:35.045Z,99716.88
2022-12-15T04:04:02.634Z,99714.00
2022-12-15T04:06:29.894Z,99720.09
2022-12-15T04:08:56.402Z,99719.47
2022-12-15T04:11:22.714Z,99713.78
2022-12-15T04:13:49.045Z,99715.84
2022-12-15T04:16:19.853Z,99712.63
2022-12-15T04:18:46.948Z,99706.50
2022-12-15T04:21:13.272Z,99711.41
2022-12-15T04:23:39.576Z,99719.53
2022-12-15T04:26:05.892Z,99721.97
2022-12-15T04:28:32.280Z,99724.00
2022-12-15T04:31:07.973Z,99731.28
2022-12-15T04:33:36.046Z,99730.47
2022-12-15T04:36:02.753Z,99726.19
2022-12-15T04:38:29.184Z,99731.06
2022-12-15T04:40:55.645Z,99732.25
2022-12-15T04:43:21.991Z,99735.50
2022-12-15T04:45:48.325Z,99727.81
2022-12-15T04:48:14.823Z,99724.97
2022-12-15T04:50:41.203Z,99717.88
2022-12-15T04:53:13.537Z,99728.47
2022-12-15T04:55:39.922Z,99720.72
2022-12-15T04:58:07.945Z,99726.28
2022-12-15T05:00:34.281Z,99726.03
2022-12-15T05:03:12.512Z,99731.91
2022-12-15T05:05:42.928Z,99730.28
2022-12-15T05:08:09.243Z,99726.00
2022-12-15T05:10:35.586Z,99730.69
2022-12-15T05:13:06.772Z,99739.44
2022-12-15T05:15:34.286Z,99729.09
2022-12-15T05:18:00.687Z,99726.22
2022-12-15T05:20:27.033Z,99726.03
2022-12-15T05:22:57.231Z,99734.56
2022-12-15T05:25:23.571Z,99734.75
2022-12-15T05:27:49.919Z,99733.13
2022-12-15T05:30:16.318Z,99734.53
2022-12-15T05:32:42.768Z,99735.53
2022-12-15T05:35:09.152Z,99735.97
2022-12-15T05:37:35.455Z,99741.03
2022-12-15T05:40:01.862Z,99741.47
2022-12-15T05:42:28.237Z,99750.19
2022-12-15T05:44:54.542Z,99751.97
2022-12-15T05:47:20.881Z,99752.59
2022-12-15T05:49:47.247Z,99765.81
2022-12-15T05:52:13.588Z,99759.09
2022-12-15T05:54:40.018Z,99768.66
2022-12-15T05:57:06.350Z,99768.03
2022-12-15T05:59:32.668Z,99770.28
2022-12-15T06:01:59.154Z,99779.63
2022-12-15T06:04:25.703Z,99773.72
2022-12-15T06:06:52.108Z,99784.50
2022-12-15T06:09:18.598Z,99788.53
2022-12-15T06:11:44.966Z,99796.84
2022-12-15T06:14:11.325Z,99798.03
2022-12-15T06:16:44.197Z,99795.84
2022-12-15T06:19:16.877Z,99794.19
2022-12-15T06:21:43.183Z,99799.69
2022-12-15T06:24:10.270Z,99804.34
2022-12-15T06:26:38.663Z,99802.72
2022-12-15T06:29:07.459Z,99797.00
2022-12-15T06:31:34.804Z,99804.94
2022-12-15T06:34:04.611Z,99809.97
2022-12-15T06:36:31.293Z,99819.28
2022-12-15T06:39:02.977Z,99820.66
2022-12-15T06:41:29.834Z,99823.50
2022-12-15T06:43:56.809Z,99815.59
2022-12-15T06:46:24.389Z,99817.00
2022-12-15T06:48:50.829Z,99815.16
2022-12-15T06:51:17.909Z,99819.59
2022-12-15T06:53:44.954Z,99830.69
2022-12-15T06:56:34.429Z,99825.81
2022-12-15T06:59:02.597Z,99814.09
2022-12-15T07:01:29.394Z,99810.19
2022-12-15T07:03:56.052Z,99825.19
2022-12-15T07:06:23.027Z,99822.16
2022-12-15T07:08:51.979Z,99829.88
2022-12-15T07:11:19.405Z,99833.94
2022-12-15T07:13:49.433Z,99840.88
2022-12-15T07:16:15.807Z,99837.84
2022-12-15T07:18:42.179Z,99832.56
2022-12-15T07:21:09.493Z,99837.19
2022-12-15T07:23:53.474Z,99841.84
2022-12-15T07:26:20.806Z,99839.59
2022-12-15T07:28:47.124Z,99840.22
2022-12-15T07:31:13.505Z,99846.34
2022-12-15T07:33:40.089Z,99848.63
2022-12-15T07:36:06.987Z,99858.78
2022-12-15T07:38:33.881Z,99866.06
2022-12-15T07:41:02.032Z,99859.41
2022-12-15T07:43:29.520Z,99873.03
2022-12-15T07:45:56.925Z,99872.63
2022-12-15T07:48:23.325Z,99879.75
2022-12-15T07:50:50.422Z,99873.25
2022-12-15T07:53:17.039Z,99884.25
2022-12-15T07:56:06.440Z,99882.78
2022-12-15T07:58:29.792Z,99891.28
2022-12-15T08:01:01.513Z,99902.28
2022-12-15T08:03:29.761Z,99904.13
2022-12-15T08:06:02.062Z,99910.56
2022-12-15T08:08:30.702Z,99912.97
2022-12-15T08:10:57.319Z,99906.47
2022-12-15T08:14:00.212Z,99907.91
2022-12-15T08:16:11.073Z,99904.28
2022-12-15T08:18:37.578Z,99906.16
2022-12-15T08:21:05.975Z,99910.63
2022-12-15T08:23:33.407Z,99915.09
2022-12-15T08:26:04.084Z,99911.88
2022-12-15T08:28:30.576Z,99908.63
2022-12-15T08:31:02.913Z,99905.38
2022-12-15T08:33:29.616Z,99903.34
2022-12-15T08:36:05.214Z,99903.34
2022-12-15T08:38:32.787Z,99907.81
2022-12-15T08:41:10.371Z,99904.38
2022-12-15T08:43:41.131Z,99909.47
2022-12-15T08:46:12.712Z,99909.41
2022-12-15T08:48:39.094Z,99917.34
2022-12-15T08:51:05.585Z,99913.69
2022-12-15T08:53:32.428Z,99912.47
2022-12-15T08:56:10.486Z,99912.22
2022-12-15T08:58:36.826Z,99917.91
2022-12-15T09:01:05.978Z,99926.84
2022-12-15T09:03:33.981Z,99927.84
2022-12-15T09:06:05.535Z,99923.88
2022-12-15T09:08:32.154Z,99924.28
2022-12-15T09:10:59.059Z,99921.06
2022-12-15T09:13:25.986Z,99927.72
2022-12-15T09:16:09.806Z,99936.06
2022-12-15T09:18:37.522Z,99938.06
2022-12-15T09:21:06.260Z,99934.13
2022-12-15T09:23:33.356Z,99926.22
2022-12-15T09:26:06.636Z,99932.25
2022-12-15T09:28:33.509Z,99941.13
2022-12-15T09:31:08.952Z,99943.16
2022-12-15T09:33:36.142Z,99951.75
2022-12-15T09:36:03.756Z,99949.38
2022-12-15T09:38:30.687Z,99944.53
2022-12-15T09:40:57.386Z,99952.03
2022-12-15T09:43:35.394Z,99958.53
2022-12-15T09:46:23.363Z,99961.78
2022-12-15T09:48:52.799Z,99954.94
2022-12-15T09:51:19.182Z,99947.28
2022-12-15T09:53:55.845Z,99950.28
2022-12-15T09:56:52.578Z,99957.09
2022-12-15T09:59:34.689Z,99968.28
2022-12-15T10:02:28.120Z,99968.69
2022-12-15T10:05:14.182Z,99964.19
2022-12-15T10:07:44.537Z,99968.91
2022-12-15T10:10:29.818Z,99970.03
2022-12-15T10:13:02.647Z,99961.88
2022-12-15T10:15:45.994Z,99967.09
2022-12-15T10:18:26.506Z,99969.25
2022-12-15T10:20:54.485Z,99977.16
2022-12-15T10:23:21.043Z,99977.44
2022-12-15T10:25:57.001Z,99981.06
2022-12-15T10:28:44.450Z,99970.56
2022-12-15T10:31:20.385Z,99969.50
2022-12-15T10:34:05.343Z,99970.22
2022-12-15T10:36:31.676Z,99974.06
2022-12-15T10:38:57.985Z,99964.91
2022-12-15T10:41:25.107Z,99968.44
2022-12-15T10:43:52.915Z,99969.78
2022-12-15T10:46:20.424Z,99977.56
2022-12-15T10:49:20.075Z,99974.00
2022-12-15T10:51:55.777Z,99967.97
2022-12-15T10:54:23.273Z,99963.34
2022-12-15T10:56:57.950Z,99964.44
2022-12-15T10:59:32.801Z,99962.25
2022-12-15T11:02:23.776Z,99958.09
2022-12-15T11:05:27.188Z,99964.13
2022-12-15T11:08:13.184Z,99957.19
2022-12-15T11:10:54.183Z,99964.81
2022-12-15T11:13:22.641Z,99963.91
2022-12-15T11:18:48.908Z,99955.81
2022-12-15T11:21:26.468Z,99963.47
2022-12-15T11:24:16.442Z,99963.69
2022-12-15T11:26:48.990Z,99961.97
2022-12-15T11:29:32.571Z,99963.56
2022-12-15T11:32:03.258Z,99963.22
2022-12-15T11:34:37.654Z,99976.34
2022-12-15T11:37:12.719Z,99968.34
2022-12-15T11:39:54.203Z,99961.16
2022-12-15T11:42:33.039Z,99959.88
2022-12-15T11:45:08.736Z,99953.75
2022-12-15T11:47:48.951Z,99955.72
2022-12-15T11:50:30.577Z,99945.84
2022-12-15T11:53:10.203Z,99950.25
2022-12-15T11:56:05.363Z,99949.78
2022-12-15T11:58:56.610Z,99950.59
2022-12-15T12:01:52.691Z,99937.97
2022-12-15T12:04:25.771Z,99943.28
2022-12-15T12:07:16.643Z,99930.56
2022-12-15T12:10:12.682Z,99938.66
2022-12-15T12:12:54.742Z,99928.47
2022-12-15T12:15:47.170Z,99935.75
2022-12-15T12:18:22.698Z,99938.88
2022-12-15T12:21:12.949Z,99935.50
2022-12-15T12:23:42.017Z,99943.25
2022-12-15T12:26:32.488Z,99935.38
2022-12-15T12:29:23.064Z,99938.84
2022-12-15T12:32:11.088Z,99936.31
2022-12-15T12:34:51.398Z,99935.97
2022-12-15T12:37:20.403Z,99936.41
2022-12-15T12:39:48.011Z,99932.91
2022-12-15T12:42:21.987Z,99931.84
2022-12-15T12:44:48.679Z,99935.00
2022-12-15T12:47:29.454Z,99931.97
2022-12-15T12:50:05.218Z,99931.28
2022-12-15T12:52:34.835Z,99929.09
2022-12-15T12:55:14.903Z,99924.91
2022-12-15T12:57:42.559Z,99921.19
2022-12-15T13:00:08.813Z,99924.66
2022-12-15T13:02:35.217Z,99918.03
2022-12-15T13:05:22.050Z,99918.72
2022-12-15T13:08:05.152Z,99913.16
2022-12-15T13:10:32.813Z,99915.22
2022-12-15T13:13:30.667Z,99905.41
2022-12-15T13:16:31.136Z,99905.94
2022-12-15T13:19:03.143Z,99908.28
2022-12-15T13:21:41.629Z,99905.84
2022-12-15T13:24:29.648Z,99903.53
2022-12-15T13:27:11.125Z,99903.91
2022-12-15T13:29:57.029Z,99899.41
2022-12-15T13:32:37.167Z,99895.00
2022-12-15T13:35:22.529Z,99900.34
2022-12-15T13:37:51.693Z,99901.88
2022-12-15T13:40:32.063Z,99894.19
2022-12-15T13:43:29.885Z,99891.28
2022-12-15T13:46:00.226Z,99888.72
2022-12-15T13:48:36.709Z,99892.75
2022-12-15T13:51:14.200Z,99890.25
2022-12-15T13:53:51.600Z,99894.53
2022-12-15T13:56:44.590Z,99891.53
2022-12-15T13:59:37.236Z,99886.72
2022-12-15T14:02:03.747Z,99892.22
2022-12-15T14:04:30.275Z,99890.78
2022-12-15T14:07:01.180Z,99885.97
2022-12-15T14:09:34.473Z,99881.72
2022-12-15T14:12:07.539Z,99879.75
2022-12-15T14:14:37.814Z,99883.13
2022-12-15T14:17:08.856Z,99878.03
2022-12-15T14:19:46.472Z,99883.72
2022-12-15T14:22:29.922Z,99888.84
2022-12-15T14:25:01.816Z,99886.41
2022-12-15T14:27:30.238Z,99887.81
2022-12-15T14:30:19.690Z,99883.53
2022-12-15T14:32:54.173Z,99880.31
2022-12-15T14:35:32.208Z,99887.06
2022-12-15T14:38:02.539Z,99891.66
2022-12-15T14:40:29.875Z,99888.31
2022-12-15T14:42:56.614Z,99880.06
2022-12-15T14:45:28.496Z,99881.81
2022-12-15T14:50:48.514Z,99881.19
2022-12-15T14:53:18.146Z,99883.28
2022-12-15T14:55:44.460Z,99877.25
2022-12-15T14:58:35.687Z,99875.16
2022-12-15T15:01:03.789Z,99871.69
2022-12-15T15:03:13.526Z,99962.41
2022-12-15T15:03:38.863Z,99879.53
2022-12-15T15:06:33.892Z,99871.88
2022-12-15T15:09:16.639Z,99880.31
2022-12-15T15:11:43.432Z,99879.81
2022-12-15T15:14:16.964Z,99871.69
2022-12-15T15:16:43.868Z,99877.69
2022-12-15T15:19:21.173Z,99872.09
2022-12-15T15:21:47.702Z,99870.25
2022-12-15T15:24:13.943Z,99865.38
2022-12-15T15:26:40.438Z,99861.31
2022-12-15T15:29:32.160Z,99854.50
2022-12-15T15:32:16.524Z,99862.97
2022-12-15T15:34:44.020Z,99860.03
2022-12-15T15:37:24.566Z,99862.09
2022-12-15T15:39:53.057Z,99859.28
2022-12-15T15:42:19.372Z,99857.81
2022-12-15T15:44:45.801Z,99864.03
2022-12-15T15:47:22.667Z,99865.34
2022-12-15T15:49:49.562Z,99874.19
2022-12-15T15:52:15.861Z,99872.78
2022-12-15T15:54:43.671Z,99869.94
2022-12-15T15:57:14.644Z,99877.91
2022-12-15T15:59:42.337Z,99876.84
2022-12-15T16:02:12.960Z,99878.34
2022-12-15T16:04:40.482Z,99876.13
2022-12-15T16:07:13.163Z,99877.72
2022-12-15T16:09:40.579Z,99878.78
2022-12-15T16:12:19.386Z,99881.00
2022-12-15T16:14:45.697Z,99885.94
2022-12-15T16:17:18.642Z,99879.22
2022-12-15T16:19:44.938Z,99876.84
2022-12-15T16:22:20.264Z,99876.50
2022-12-15T16:24:46.812Z,99882.59
2022-12-15T16:27:14.954Z,99884.28
2022-12-15T16:29:41.523Z,99886.34
2022-12-15T16:32:11.519Z,99900.84
2022-12-15T16:34:38.107Z,99911.34
2022-12-15T16:37:04.840Z,99909.94
2022-12-15T16:39:34.034Z,99911.22
2022-12-15T16:42:01.030Z,99908.63
2022-12-15T16:44:28.897Z,99910.53
2022-12-15T16:46:55.328Z,99909.91
2022-12-15T16:49:21.845Z,99907.25
2022-12-15T16:51:51.568Z,99905.47
2022-12-15T16:54:22.028Z,99912.06
2022-12-15T16:56:48.704Z,99909.78
2022-12-15T16:59:32.570Z,99912.94
2022-12-15T17:01:59.983Z,99916.16
2022-12-15T17:04:26.343Z,99917.03
2022-12-15T17:06:52.999Z,99918.66
2022-12-15T17:09:23.359Z,99923.69
2022-12-15T17:11:50.511Z,99929.59
2022-12-15T17:14:16.817Z,99934.97
2022-12-15T17:16:43.176Z,99937.97
2022-12-15T17:19:09.480Z,99940.63
2022-12-15T17:21:45.587Z,99938.41
2022-12-15T17:24:15.650Z,99946.19
2022-12-15T17:26:42.527Z,99945.19
2022-12-15T17:29:15.232Z,99944.41
2022-12-15T17:31:41.638Z,99943.22
2022-12-15T17:34:32.119Z,99940.97
2022-12-15T17:37:00.603Z,99936.53
2022-12-15T17:39:27.586Z,99939.19
2022-12-15T17:42:02.378Z,99939.56
2022-12-15T17:44:36.197Z,99948.22
2022-12-15T17:47:04.452Z,99944.53
2022-12-15T17:49:35.477Z,99952.06
2022-12-15T17:52:06.925Z,99957.75
2022-12-15T17:54:33.650Z,99961.63
2022-12-15T17:57:00.221Z,99964.56
2022-12-15T17:59:26.631Z,99964.94
2022-12-15T18:01:53.051Z,99971.84
2022-12-15T18:04:19.449Z,99973.09
2022-12-15T18:06:45.886Z,99970.03
2022-12-15T18:09:17.565Z,99972.31
2022-12-15T18:11:44.272Z,99975.53
2022-12-15T18:14:14.533Z,99978.81
2022-12-15T18:16:41.396Z,99977.41
2022-12-15T18:19:07.822Z,99976.38
2022-12-15T18:21:34.352Z,99993.28
2022-12-15T18:24:00.918Z,99997.78
2022-12-15T18:26:27.262Z,99996.50
2022-12-15T18:28:53.569Z,100005.94
2022-12-15T18:31:23.679Z,100007.41
2022-12-15T18:33:50.058Z,100013.50
2022-12-15T18:36:16.709Z,100017.59
2022-12-15T18:38:43.049Z,100010.72
2022-12-15T18:41:16.157Z,100010.69
2022-12-15T18:43:43.789Z,100005.38
2022-12-15T18:46:17.376Z,99996.84
2022-12-15T18:48:44.224Z,99995.66
2022-12-15T18:51:20.661Z,99994.22
2022-12-15T18:53:47.477Z,99996.88
2022-12-15T18:56:15.535Z,99997.47
2022-12-15T18:58:42.319Z,99999.53
2022-12-15T19:01:09.192Z,99999.94
2022-12-15T19:03:36.796Z,100002.56
2022-12-15T19:06:25.751Z,99992.00
2022-12-15T19:08:52.686Z,99991.78
2022-12-15T19:11:25.143Z,99984.28
2022-12-15T19:13:51.504Z,99968.38
2022-12-15T19:16:19.889Z,99970.03
2022-12-15T19:18:46.281Z,99962.31
2022-12-15T19:21:24.385Z,99961.09
2022-12-15T19:23:50.681Z,99961.91
2022-12-15T19:26:17.006Z,99963.72
2022-12-15T19:28:43.300Z,99965.94
2022-12-15T19:31:09.633Z,99964.75
2022-12-15T19:33:36.039Z,99973.09
2022-12-15T19:36:03.629Z,99982.66
2022-12-15T19:38:32.115Z,99979.41
2022-12-15T19:40:59.562Z,99988.34
2022-12-15T19:43:26.616Z,99988.34
2022-12-15T19:45:53.257Z,99995.88
2022-12-15T19:48:23.301Z,99990.00
2022-12-15T19:50:50.792Z,99995.31
2022-12-15T19:53:24.652Z,99992.03
2022-12-15T19:55:53.899Z,99987.16
2022-12-15T19:58:27.852Z,99980.03
2022-12-15T20:00:56.826Z,99983.47
2022-12-15T20:03:23.571Z,99975.97
2022-12-15T20:05:52.530Z,99988.97
2022-12-15T20:08:23.365Z,99992.84
2022-12-15T20:10:50.291Z,99989.38
2022-12-15T20:13:17.018Z,99987.56
2022-12-15T20:15:43.560Z,99971.66
2022-12-15T20:18:09.937Z,99983.28
2022-12-15T20:20:37.573Z,99987.13
2022-12-15T20:23:11.126Z,99990.41
2022-12-15T20:25:37.644Z,99990.00
2022-12-15T20:28:06.505Z,99982.66
2022-12-15T20:30:35.520Z,99981.84
2022-12-15T20:33:03.860Z,99983.91
2022-12-15T20:35:31.832Z,99985.69
2022-12-15T20:37:58.487Z,99984.28
2022-12-15T20:40:28.526Z,99992.63
2022-12-15T20:42:56.066Z,99983.06
2022-12-15T20:45:26.975Z,99984.69
2022-12-15T20:47:55.632Z,99984.72
2022-12-15T20:50:26.868Z,99980.66
2022-12-15T20:52:53.830Z,99986.53
2022-12-15T20:55:21.414Z,99987.34
2022-12-15T20:57:47.763Z,99986.31
2022-12-15T21:00:14.615Z,99996.53
2022-12-15T21:02:41.715Z,99995.28
2022-12-15T21:05:15.684Z,99986.72
2022-12-15T21:07:42.153Z,99997.06
2022-12-15T21:10:09.497Z,100000.50
2022-12-15T21:12:35.819Z,99993.00
2022-12-15T21:15:02.144Z,99991.31
2022-12-15T21:17:28.708Z,99989.06
2022-12-15T21:19:55.031Z,99991.53
2022-12-15T21:22:24.638Z,99991.31
2022-12-15T21:24:54.063Z,99989.94
2022-12-15T21:27:21.543Z,99991.16
2022-12-15T21:29:52.317Z,99990.28
2022-12-15T21:32:19.088Z,99995.56
2022-12-15T21:34:45.404Z,99993.75
2022-12-15T21:37:23.546Z,99998.03
2022-12-15T21:39:50.159Z,99995.22
2022-12-15T21:42:18.098Z,99998.25
2022-12-15T21:44:45.098Z,99996.38
2022-12-15T21:47:26.016Z,99997.00
2022-12-15T21:49:52.618Z,100006.13
2022-12-15T21:52:19.602Z,100005.31
2022-12-15T21:54:45.911Z,100008.38
2022-12-15T21:57:12.639Z,100014.06
2022-12-15T21:59:39.035Z,100015.25
2022-12-15T22:02:23.571Z,100022.97
2022-12-15T22:04:50.120Z,100025.00
2022-12-15T22:07:18.248Z,100021.91
2022-12-15T22:09:44.976Z,100025.16
2022-12-15T22:12:23.034Z,100024.13
2022-12-15T22:14:49.610Z,100024.28
2022-12-15T22:17:18.652Z,100025.09
2022-12-15T22:19:45.168Z,100017.75
2022-12-15T22:22:12.696Z,100023.84
2022-12-15T22:24:39.452Z,100022.25
2022-12-15T22:27:13.799Z,100021.84
2022-12-15T22:29:40.161Z,100025.28
2022-12-15T22:32:13.670Z,100026.38
2022-12-15T22:34:40.276Z,100028.38
2022-12-15T22:37:06.735Z,100030.19
2022-12-15T22:39:33.367Z,100033.25
2022-12-15T22:42:01.125Z,100029.41
2022-12-15T22:44:30.630Z,100033.78
2022-12-15T22:46:59.755Z,100030.91
2022-12-15T22:49:34.064Z,100031.94
2022-12-15T22:52:00.431Z,100037.06
2022-12-15T22:54:28.192Z,100045.28
2022-12-15T22:57:01.655Z,100046.53
2022-12-15T22:59:40.915Z,100049.75
2022-12-15T23:02:08.425Z,100047.28
2022-12-15T23:04:34.972Z,100052.63
2022-12-15T23:07:04.423Z,100056.38
2022-12-15T23:09:31.332Z,100052.06
2022-12-15T23:11:57.812Z,100052.91
2022-12-15T23:14:24.261Z,100063.13
2022-12-15T23:16:50.594Z,100058.00
2022-12-15T23:19:16.962Z,100062.44
2022-12-15T23:21:43.261Z,100060.19
2022-12-15T23:24:09.607Z,100060.25
2022-12-15T23:26:35.919Z,100065.53
2022-12-15T23:29:02.234Z,100061.47
2022-12-15T23:31:28.574Z,100066.09
2022-12-15T23:33:54.953Z,100057.78
2022-12-15T23:36:21.468Z,100057.66
2022-12-15T23:38:47.792Z,100056.31
2022-12-15T23:41:16.349Z,100057.06
2022-12-15T23:43:42.833Z,100063.22
2022-12-15T23:46:09.444Z,100065.16
2022-12-15T23:48:38.297Z,100065.88
2022-12-15T23:51:15.894Z,100063.97
2022-12-15T23:53:43.887Z,100075.44
2022-12-15T23:56:22.878Z,100068.59
2022-12-15T23:58:55.213Z,100068.50
